sensor_id;sensor_type;location;lat;lon;timestamp;temperature;humidity
12446;DHT22;6287;50.984;7.022;2022-07-23T00:00:21;19.20;99.90
12446;DHT22;6287;50.984;7.022;2022-07-23T00:02:49;19.20;99.90
12446;DHT22;6287;50.984;7.022;2022-07-23T00:05:14;19.20;99.90
12446;DHT22;6287;50.984;7.022;2022-07-23T00:07:40;19.10;99.90
12446;DHT22;6287;50.984;7.022;2022-07-23T00:10:06;19.10;99.90
12446;DHT22;6287;50.984;7.022;2022-07-23T00:12:34;19.10;99.90
12446;DHT22;6287;50.984;7.022;2022-07-23T00:15:01;19.10;99.90
12446;DHT22;6287;50.984;7.022;2022-07-23T00:17:30;19.10;99.90
12446;DHT22;6287;50.984;7.022;2022-07-23T00:19:55;19.10;99.90
12446;DHT22;6287;50.984;7.022;2022-07-23T00:22:23;19.00;99.90
12446;DHT22;6287;50.984;7.022;2022-07-23T00:24:49;19.00;99.90
12446;DHT22;6287;50.984;7.022;2022-07-23T00:27:14;18.90;99.90
12446;DHT22;6287;50.984;7.022;2022-07-23T00:29:42;18.70;99.90
12446;DHT22;6287;50.984;7.022;2022-07-23T00:32:10;18.50;99.90
12446;DHT22;6287;50.984;7.022;2022-07-23T00:34:38;18.30;99.90
12446;DHT22;6287;50.984;7.022;2022-07-23T00:37:06;18.00;99.90
12446;DHT22;6287;50.984;7.022;2022-07-23T00:39:32;17.90;99.90
12446;DHT22;6287;50.984;7.022;2022-07-23T00:41:57;17.80;99.90
12446;DHT22;6287;50.984;7.022;2022-07-23T00:44:25;17.70;99.90
12446;DHT22;6287;50.984;7.022;2022-07-23T00:46:58;17.60;99.90
12446;DHT22;6287;50.984;7.022;2022-07-23T00:49:30;17.50;99.90
12446;DHT22;6287;50.984;7.022;2022-07-23T00:51:57;17.50;99.90
12446;DHT22;6287;50.984;7.022;2022-07-23T00:54:28;17.40;99.90
12446;DHT22;6287;50.984;7.022;2022-07-23T00:56:54;17.40;99.90
12446;DHT22;6287;50.984;7.022;2022-07-23T00:59:22;17.40;99.90
12446;DHT22;6287;50.984;7.022;2022-07-23T01:01:48;17.30;99.90
12446;DHT22;6287;50.984;7.022;2022-07-23T01:04:14;17.30;99.90
12446;DHT22;6287;50.984;7.022;2022-07-23T01:06:40;17.30;99.90
12446;DHT22;6287;50.984;7.022;2022-07-23T01:09:08;17.30;99.90
12446;DHT22;6287;50.984;7.022;2022-07-23T01:11:37;17.20;99.90
12446;DHT22;6287;50.984;7.022;2022-07-23T01:14:16;17.20;99.90
12446;DHT22;6287;50.984;7.022;2022-07-23T01:16:43;17.20;99.90
12446;DHT22;6287;50.984;7.022;2022-07-23T01:19:12;17.10;99.90
12446;DHT22;6287;50.984;7.022;2022-07-23T01:21:40;17.10;99.90
12446;DHT22;6287;50.984;7.022;2022-07-23T01:24:12;17.00;99.90
12446;DHT22;6287;50.984;7.022;2022-07-23T01:26:44;17.00;99.90
12446;DHT22;6287;50.984;7.022;2022-07-23T01:29:11;17.00;99.90
12446;DHT22;6287;50.984;7.022;2022-07-23T01:31:39;17.00;99.90
12446;DHT22;6287;50.984;7.022;2022-07-23T01:34:06;17.00;99.90
12446;DHT22;6287;50.984;7.022;2022-07-23T01:36:35;17.00;99.90
12446;DHT22;6287;50.984;7.022;2022-07-23T01:39:04;17.00;99.90
12446;DHT22;6287;50.984;7.022;2022-07-23T01:41:30;17.00;99.90
12446;DHT22;6287;50.984;7.022;2022-07-23T01:43:57;17.00;99.90
12446;DHT22;6287;50.984;7.022;2022-07-23T01:46:23;17.00;99.90
12446;DHT22;6287;50.984;7.022;2022-07-23T01:48:54;17.00;99.90
12446;DHT22;6287;50.984;7.022;2022-07-23T01:51:22;17.00;99.90
12446;DHT22;6287;50.984;7.022;2022-07-23T01:53:55;17.10;99.90
12446;DHT22;6287;50.984;7.022;2022-07-23T01:56:23;17.10;99.90
12446;DHT22;6287;50.984;7.022;2022-07-23T01:58:49;17.10;99.90
12446;DHT22;6287;50.984;7.022;2022-07-23T02:01:15;17.10;99.90
12446;DHT22;6287;50.984;7.022;2022-07-23T02:03:40;17.10;99.90
12446;DHT22;6287;50.984;7.022;2022-07-23T02:06:06;17.10;99.90
12446;DHT22;6287;50.984;7.022;2022-07-23T02:08:36;17.10;99.90
12446;DHT22;6287;50.984;7.022;2022-07-23T02:11:07;17.10;99.90
12446;DHT22;6287;50.984;7.022;2022-07-23T02:13:37;17.10;99.90
12446;DHT22;6287;50.984;7.022;2022-07-23T02:16:03;17.10;99.90
12446;DHT22;6287;50.984;7.022;2022-07-23T02:18:31;17.10;99.90
12446;DHT22;6287;50.984;7.022;2022-07-23T02:20:59;17.10;99.90
12446;DHT22;6287;50.984;7.022;2022-07-23T02:23:27;17.00;99.90
12446;DHT22;6287;50.984;7.022;2022-07-23T02:25:58;17.00;99.90
12446;DHT22;6287;50.984;7.022;2022-07-23T02:28:24;17.00;99.90
12446;DHT22;6287;50.984;7.022;2022-07-23T02:30:49;17.00;99.90
12446;DHT22;6287;50.984;7.022;2022-07-23T02:33:17;17.00;99.90
12446;DHT22;6287;50.984;7.022;2022-07-23T02:35:45;17.00;99.90
12446;DHT22;6287;50.984;7.022;2022-07-23T02:38:13;17.00;99.90
12446;DHT22;6287;50.984;7.022;2022-07-23T02:40:38;17.00;99.90
12446;DHT22;6287;50.984;7.022;2022-07-23T02:43:06;17.00;99.90
12446;DHT22;6287;50.984;7.022;2022-07-23T02:45:34;17.00;99.90
12446;DHT22;6287;50.984;7.022;2022-07-23T02:48:02;17.00;99.90
12446;DHT22;6287;50.984;7.022;2022-07-23T02:50:33;17.00;99.90
12446;DHT22;6287;50.984;7.022;2022-07-23T02:53:01;17.00;99.90
12446;DHT22;6287;50.984;7.022;2022-07-23T02:55:29;17.00;99.90
12446;DHT22;6287;50.984;7.022;2022-07-23T02:57:54;17.00;99.90
12446;DHT22;6287;50.984;7.022;2022-07-23T03:00:22;17.00;99.90
12446;DHT22;6287;50.984;7.022;2022-07-23T03:02:48;17.00;99.90
12446;DHT22;6287;50.984;7.022;2022-07-23T03:05:16;17.00;99.90
12446;DHT22;6287;50.984;7.022;2022-07-23T03:07:44;17.00;99.90
12446;DHT22;6287;50.984;7.022;2022-07-23T03:10:09;16.90;99.90
12446;DHT22;6287;50.984;7.022;2022-07-23T03:12:37;16.90;99.90
12446;DHT22;6287;50.984;7.022;2022-07-23T03:15:09;16.80;99.90
12446;DHT22;6287;50.984;7.022;2022-07-23T03:17:37;16.70;99.90
12446;DHT22;6287;50.984;7.022;2022-07-23T03:20:05;16.70;99.90
12446;DHT22;6287;50.984;7.022;2022-07-23T03:22:33;16.60;99.90
12446;DHT22;6287;50.984;7.022;2022-07-23T03:24:59;16.60;99.90
12446;DHT22;6287;50.984;7.022;2022-07-23T03:27:29;16.60;99.90
12446;DHT22;6287;50.984;7.022;2022-07-23T03:29:57;16.60;99.90
12446;DHT22;6287;50.984;7.022;2022-07-23T03:32:24;16.60;99.90
12446;DHT22;6287;50.984;7.022;2022-07-23T03:34:50;16.60;99.90
12446;DHT22;6287;50.984;7.022;2022-07-23T03:37:16;16.50;99.90
12446;DHT22;6287;50.984;7.022;2022-07-23T03:39:45;16.50;99.90
12446;DHT22;6287;50.984;7.022;2022-07-23T03:42:10;16.40;99.90
12446;DHT22;6287;50.984;7.022;2022-07-23T03:44:41;16.40;99.90
12446;DHT22;6287;50.984;7.022;2022-07-23T03:47:09;16.30;99.90
12446;DHT22;6287;50.984;7.022;2022-07-23T03:49:37;16.30;99.90
12446;DHT22;6287;50.984;7.022;2022-07-23T03:52:05;16.20;99.90
12446;DHT22;6287;50.984;7.022;2022-07-23T03:54:33;16.30;99.90
12446;DHT22;6287;50.984;7.022;2022-07-23T03:57:01;16.20;99.90
12446;DHT22;6287;50.984;7.022;2022-07-23T03:59:27;16.20;99.90
12446;DHT22;6287;50.984;7.022;2022-07-23T04:01:52;16.20;99.90
12446;DHT22;6287;50.984;7.022;2022-07-23T04:04:20;16.20;99.90
12446;DHT22;6287;50.984;7.022;2022-07-23T04:06:46;16.20;99.90
12446;DHT22;6287;50.984;7.022;2022-07-23T04:09:13;16.20;99.90
12446;DHT22;6287;50.984;7.022;2022-07-23T04:11:39;16.10;99.90
12446;DHT22;6287;50.984;7.022;2022-07-23T04:14:10;16.10;99.90
12446;DHT22;6287;50.984;7.022;2022-07-23T04:16:35;16.10;99.90
12446;DHT22;6287;50.984;7.022;2022-07-23T04:19:03;16.10;99.90
12446;DHT22;6287;50.984;7.022;2022-07-23T04:21:34;16.10;99.90
12446;DHT22;6287;50.984;7.022;2022-07-23T04:24:02;16.10;99.90
12446;DHT22;6287;50.984;7.022;2022-07-23T04:26:28;16.20;99.90
12446;DHT22;6287;50.984;7.022;2022-07-23T04:28:58;16.10;99.90
12446;DHT22;6287;50.984;7.022;2022-07-23T04:31:24;16.10;99.90
12446;DHT22;6287;50.984;7.022;2022-07-23T04:33:51;16.20;99.90
12446;DHT22;6287;50.984;7.022;2022-07-23T04:36:20;16.20;99.90
12446;DHT22;6287;50.984;7.022;2022-07-23T04:38:45;16.20;99.90
12446;DHT22;6287;50.984;7.022;2022-07-23T04:41:11;16.20;99.90
12446;DHT22;6287;50.984;7.022;2022-07-23T04:43:36;16.20;99.90
12446;DHT22;6287;50.984;7.022;2022-07-23T04:46:04;16.20;99.90
12446;DHT22;6287;50.984;7.022;2022-07-23T04:48:35;16.30;99.90
12446;DHT22;6287;50.984;7.022;2022-07-23T04:51:01;16.30;99.90
12446;DHT22;6287;50.984;7.022;2022-07-23T04:53:27;16.30;99.90
12446;DHT22;6287;50.984;7.022;2022-07-23T04:55:55;16.30;99.90
12446;DHT22;6287;50.984;7.022;2022-07-23T04:58:21;16.40;99.90
12446;DHT22;6287;50.984;7.022;2022-07-23T05:00:49;16.40;99.90
12446;DHT22;6287;50.984;7.022;2022-07-23T05:03:17;16.40;99.90
12446;DHT22;6287;50.984;7.022;2022-07-23T05:05:45;16.50;99.90
12446;DHT22;6287;50.984;7.022;2022-07-23T05:08:10;16.50;99.90
12446;DHT22;6287;50.984;7.022;2022-07-23T05:10:36;16.60;99.90
12446;DHT22;6287;50.984;7.022;2022-07-23T05:13:04;16.60;99.90
12446;DHT22;6287;50.984;7.022;2022-07-23T05:15:29;16.70;99.90
12446;DHT22;6287;50.984;7.022;2022-07-23T05:18:00;16.80;99.90
12446;DHT22;6287;50.984;7.022;2022-07-23T05:20:25;16.90;99.90
12446;DHT22;6287;50.984;7.022;2022-07-23T05:22:53;16.90;99.90
12446;DHT22;6287;50.984;7.022;2022-07-23T05:25:19;17.00;99.90
12446;DHT22;6287;50.984;7.022;2022-07-23T05:27:44;17.10;99.90
12446;DHT22;6287;50.984;7.022;2022-07-23T05:30:12;17.10;99.90
12446;DHT22;6287;50.984;7.022;2022-07-23T05:32:40;17.20;99.90
12446;DHT22;6287;50.984;7.022;2022-07-23T05:35:08;17.30;99.90
12446;DHT22;6287;50.984;7.022;2022-07-23T05:37:36;17.40;99.90
12446;DHT22;6287;50.984;7.022;2022-07-23T05:40:04;17.40;99.90
12446;DHT22;6287;50.984;7.022;2022-07-23T05:42:34;17.50;99.90
12446;DHT22;6287;50.984;7.022;2022-07-23T05:44:59;17.50;99.90
12446;DHT22;6287;50.984;7.022;2022-07-23T05:47:25;17.50;99.90
12446;DHT22;6287;50.984;7.022;2022-07-23T05:49:53;17.60;99.90
12446;DHT22;6287;50.984;7.022;2022-07-23T05:52:18;17.60;99.90
12446;DHT22;6287;50.984;7.022;2022-07-23T05:54:44;17.70;99.90
12446;DHT22;6287;50.984;7.022;2022-07-23T05:57:12;17.80;99.90
12446;DHT22;6287;50.984;7.022;2022-07-23T05:59:40;17.90;99.90
12446;DHT22;6287;50.984;7.022;2022-07-23T06:02:10;18.00;99.90
12446;DHT22;6287;50.984;7.022;2022-07-23T06:04:36;18.10;99.90
12446;DHT22;6287;50.984;7.022;2022-07-23T06:07:03;18.20;99.90
12446;DHT22;6287;50.984;7.022;2022-07-23T06:09:29;18.30;99.90
12446;DHT22;6287;50.984;7.022;2022-07-23T06:11:54;18.30;99.90
12446;DHT22;6287;50.984;7.022;2022-07-23T06:14:20;18.30;99.90
12446;DHT22;6287;50.984;7.022;2022-07-23T06:16:46;18.40;99.90
12446;DHT22;6287;50.984;7.022;2022-07-23T06:19:14;18.50;99.90
12446;DHT22;6287;50.984;7.022;2022-07-23T06:21:39;18.70;99.90
12446;DHT22;6287;50.984;7.022;2022-07-23T06:24:07;18.70;99.90
12446;DHT22;6287;50.984;7.022;2022-07-23T06:29:02;18.90;99.90
12446;DHT22;6287;50.984;7.022;2022-07-23T06:31:30;19.20;99.90
12446;DHT22;6287;50.984;7.022;2022-07-23T06:33:55;19.20;99.90
12446;DHT22;6287;50.984;7.022;2022-07-23T06:36:21;19.30;99.90
12446;DHT22;6287;50.984;7.022;2022-07-23T06:38:48;19.50;99.90
12446;DHT22;6287;50.984;7.022;2022-07-23T06:41:19;19.70;99.90
12446;DHT22;6287;50.984;7.022;2022-07-23T06:43:47;19.70;99.90
12446;DHT22;6287;50.984;7.022;2022-07-23T06:46:12;19.80;99.90
12446;DHT22;6287;50.984;7.022;2022-07-23T06:48:40;20.00;99.90
12446;DHT22;6287;50.984;7.022;2022-07-23T06:51:08;20.00;99.90
12446;DHT22;6287;50.984;7.022;2022-07-23T06:53:34;20.10;99.90
12446;DHT22;6287;50.984;7.022;2022-07-23T06:56:04;20.20;99.90
12446;DHT22;6287;50.984;7.022;2022-07-23T06:58:32;20.20;99.90
12446;DHT22;6287;50.984;7.022;2022-07-23T07:01:00;20.20;99.90
12446;DHT22;6287;50.984;7.022;2022-07-23T07:03:25;20.30;99.90
12446;DHT22;6287;50.984;7.022;2022-07-23T07:05:51;20.40;99.90
12446;DHT22;6287;50.984;7.022;2022-07-23T07:08:17;20.50;99.90
12446;DHT22;6287;50.984;7.022;2022-07-23T07:10:47;20.70;99.90
12446;DHT22;6287;50.984;7.022;2022-07-23T07:13:16;20.80;99.90
12446;DHT22;6287;50.984;7.022;2022-07-23T07:15:41;20.90;99.90
12446;DHT22;6287;50.984;7.022;2022-07-23T07:18:09;20.90;99.90
12446;DHT22;6287;50.984;7.022;2022-07-23T07:20:35;21.10;99.90
12446;DHT22;6287;50.984;7.022;2022-07-23T07:23:00;21.20;99.90
12446;DHT22;6287;50.984;7.022;2022-07-23T07:25:28;21.50;99.90
12446;DHT22;6287;50.984;7.022;2022-07-23T07:27:54;21.60;99.90
12446;DHT22;6287;50.984;7.022;2022-07-23T07:30:19;21.80;99.90
12446;DHT22;6287;50.984;7.022;2022-07-23T07:32:47;22.00;99.90
12446;DHT22;6287;50.984;7.022;2022-07-23T07:35:16;22.10;99.90
12446;DHT22;6287;50.984;7.022;2022-07-23T07:37:44;22.20;99.90
12446;DHT22;6287;50.984;7.022;2022-07-23T07:40:10;22.20;99.90
12446;DHT22;6287;50.984;7.022;2022-07-23T07:42:50;22.20;99.90
12446;DHT22;6287;50.984;7.022;2022-07-23T07:45:16;22.20;99.90
12446;DHT22;6287;50.984;7.022;2022-07-23T07:47:42;22.20;99.90
12446;DHT22;6287;50.984;7.022;2022-07-23T07:50:08;22.10;99.90
12446;DHT22;6287;50.984;7.022;2022-07-23T07:52:35;22.10;99.90
12446;DHT22;6287;50.984;7.022;2022-07-23T07:55:07;22.00;99.90
12446;DHT22;6287;50.984;7.022;2022-07-23T07:57:36;22.00;99.90
12446;DHT22;6287;50.984;7.022;2022-07-23T08:00:03;22.00;99.90
12446;DHT22;6287;50.984;7.022;2022-07-23T08:02:56;21.90;99.90
12446;DHT22;6287;50.984;7.022;2022-07-23T08:05:24;21.90;99.90
12446;DHT22;6287;50.984;7.022;2022-07-23T08:07:53;22.20;99.90
12446;DHT22;6287;50.984;7.022;2022-07-23T08:10:20;22.30;99.90
12446;DHT22;6287;50.984;7.022;2022-07-23T08:12:50;22.60;99.90
12446;DHT22;6287;50.984;7.022;2022-07-23T08:15:18;23.20;99.90
12446;DHT22;6287;50.984;7.022;2022-07-23T08:17:45;23.20;99.90
12446;DHT22;6287;50.984;7.022;2022-07-23T08:20:18;23.30;99.90
12446;DHT22;6287;50.984;7.022;2022-07-23T08:25:28;23.50;99.90
12446;DHT22;6287;50.984;7.022;2022-07-23T08:27:54;23.80;99.90
12446;DHT22;6287;50.984;7.022;2022-07-23T08:30:19;24.10;99.90
12446;DHT22;6287;50.984;7.022;2022-07-23T08:32:54;24.30;99.90
12446;DHT22;6287;50.984;7.022;2022-07-23T08:35:34;24.50;99.90
12446;DHT22;6287;50.984;7.022;2022-07-23T08:38:03;24.50;99.90
12446;DHT22;6287;50.984;7.022;2022-07-23T08:40:36;24.60;99.90
12446;DHT22;6287;50.984;7.022;2022-07-23T08:43:11;24.70;99.90
12446;DHT22;6287;50.984;7.022;2022-07-23T08:45:39;25.00;99.90
12446;DHT22;6287;50.984;7.022;2022-07-23T08:48:07;25.20;99.90
12446;DHT22;6287;50.984;7.022;2022-07-23T08:50:35;25.30;99.90
12446;DHT22;6287;50.984;7.022;2022-07-23T08:53:07;25.10;99.90
12446;DHT22;6287;50.984;7.022;2022-07-23T08:55:33;24.90;99.90
12446;DHT22;6287;50.984;7.022;2022-07-23T08:58:02;24.80;99.90
12446;DHT22;6287;50.984;7.022;2022-07-23T09:00:31;24.80;99.90
12446;DHT22;6287;50.984;7.022;2022-07-23T09:02:57;24.90;99.90
12446;DHT22;6287;50.984;7.022;2022-07-23T09:05:23;24.90;99.90
12446;DHT22;6287;50.984;7.022;2022-07-23T09:10:48;24.50;99.90
12446;DHT22;6287;50.984;7.022;2022-07-23T09:13:30;24.60;99.90
12446;DHT22;6287;50.984;7.022;2022-07-23T09:15:58;24.90;99.90
12446;DHT22;6287;50.984;7.022;2022-07-23T09:18:38;25.00;99.90
12446;DHT22;6287;50.984;7.022;2022-07-23T09:21:16;25.20;99.90
12446;DHT22;6287;50.984;7.022;2022-07-23T09:23:52;25.20;99.90
12446;DHT22;6287;50.984;7.022;2022-07-23T09:29:22;25.10;99.90
12446;DHT22;6287;50.984;7.022;2022-07-23T09:31:59;25.30;99.90
12446;DHT22;6287;50.984;7.022;2022-07-23T09:34:29;25.30;99.90
12446;DHT22;6287;50.984;7.022;2022-07-23T09:39:34;25.50;99.90
12446;DHT22;6287;50.984;7.022;2022-07-23T09:44:49;25.90;99.90
12446;DHT22;6287;50.984;7.022;2022-07-23T09:47:21;26.20;99.90
12446;DHT22;6287;50.984;7.022;2022-07-23T09:52:30;26.20;99.90
12446;DHT22;6287;50.984;7.022;2022-07-23T09:55:02;26.00;99.90
12446;DHT22;6287;50.984;7.022;2022-07-23T09:57:28;26.00;99.90
12446;DHT22;6287;50.984;7.022;2022-07-23T09:59:58;26.20;99.90
12446;DHT22;6287;50.984;7.022;2022-07-23T10:02:25;26.50;99.90
12446;DHT22;6287;50.984;7.022;2022-07-23T10:04:54;26.60;99.60
12446;DHT22;6287;50.984;7.022;2022-07-23T10:07:26;26.70;99.90
12446;DHT22;6287;50.984;7.022;2022-07-23T10:09:53;26.90;99.90
12446;DHT22;6287;50.984;7.022;2022-07-23T10:12:24;27.00;97.70
12446;DHT22;6287;50.984;7.022;2022-07-23T10:15:00;26.80;98.60
12446;DHT22;6287;50.984;7.022;2022-07-23T10:17:28;27.00;99.60
12446;DHT22;6287;50.984;7.022;2022-07-23T10:19:54;27.10;97.40
12446;DHT22;6287;50.984;7.022;2022-07-23T10:22:22;27.10;99.90
12446;DHT22;6287;50.984;7.022;2022-07-23T10:27:36;27.60;98.80
12446;DHT22;6287;50.984;7.022;2022-07-23T10:30:12;27.80;99.10
12446;DHT22;6287;50.984;7.022;2022-07-23T10:35:40;28.00;96.80
12446;DHT22;6287;50.984;7.022;2022-07-23T10:41:04;28.40;98.20
12446;DHT22;6287;50.984;7.022;2022-07-23T10:43:31;28.70;96.20
12446;DHT22;6287;50.984;7.022;2022-07-23T10:46:21;28.80;94.40
12446;DHT22;6287;50.984;7.022;2022-07-23T10:54:46;29.10;94.00
12446;DHT22;6287;50.984;7.022;2022-07-23T10:57:13;29.20;92.50
12446;DHT22;6287;50.984;7.022;2022-07-23T11:02:30;29.20;93.30
12446;DHT22;6287;50.984;7.022;2022-07-23T11:05:01;29.30;93.90
12446;DHT22;6287;50.984;7.022;2022-07-23T11:07:29;29.40;92.50
12446;DHT22;6287;50.984;7.022;2022-07-23T11:09:57;29.70;93.10
12446;DHT22;6287;50.984;7.022;2022-07-23T11:15:14;29.80;90.90
12446;DHT22;6287;50.984;7.022;2022-07-23T11:27:40;29.80;89.80
12446;DHT22;6287;50.984;7.022;2022-07-23T11:30:12;30.10;88.60
12446;DHT22;6287;50.984;7.022;2022-07-23T11:35:38;30.40;86.80
12446;DHT22;6287;50.984;7.022;2022-07-23T11:40:53;30.60;85.50
12446;DHT22;6287;50.984;7.022;2022-07-23T11:43:23;30.70;85.10
12446;DHT22;6287;50.984;7.022;2022-07-23T11:45:53;30.80;85.10
12446;DHT22;6287;50.984;7.022;2022-07-23T11:48:24;30.80;81.10
12446;DHT22;6287;50.984;7.022;2022-07-23T11:50:51;31.00;80.20
12446;DHT22;6287;50.984;7.022;2022-07-23T11:53:31;31.10;79.10
12446;DHT22;6287;50.984;7.022;2022-07-23T11:56:08;31.00;75.50
12446;DHT22;6287;50.984;7.022;2022-07-23T11:58:34;30.90;73.60
12446;DHT22;6287;50.984;7.022;2022-07-23T12:01:00;30.90;77.50
12446;DHT22;6287;50.984;7.022;2022-07-23T12:03:26;30.80;71.30
12446;DHT22;6287;50.984;7.022;2022-07-23T12:05:56;30.80;78.30
12446;DHT22;6287;50.984;7.022;2022-07-23T12:08:22;31.00;73.10
12446;DHT22;6287;50.984;7.022;2022-07-23T12:10:48;31.10;76.00
12446;DHT22;6287;50.984;7.022;2022-07-23T12:13:18;31.20;75.90
12446;DHT22;6287;50.984;7.022;2022-07-23T12:15:49;31.40;75.70
12446;DHT22;6287;50.984;7.022;2022-07-23T12:18:23;31.60;70.10
12446;DHT22;6287;50.984;7.022;2022-07-23T12:20:51;31.70;69.30
12446;DHT22;6287;50.984;7.022;2022-07-23T12:23:24;31.90;68.40
12446;DHT22;6287;50.984;7.022;2022-07-23T12:25:51;31.90;70.10
12446;DHT22;6287;50.984;7.022;2022-07-23T12:28:22;31.90;72.80
12446;DHT22;6287;50.984;7.022;2022-07-23T12:31:00;32.10;66.40
12446;DHT22;6287;50.984;7.022;2022-07-23T12:35:58;32.40;65.60
12446;DHT22;6287;50.984;7.022;2022-07-23T12:38:35;32.50;67.60
12446;DHT22;6287;50.984;7.022;2022-07-23T12:41:03;32.70;66.70
12446;DHT22;6287;50.984;7.022;2022-07-23T12:43:35;32.70;64.30
12446;DHT22;6287;50.984;7.022;2022-07-23T12:48:38;33.30;66.90
12446;DHT22;6287;50.984;7.022;2022-07-23T12:51:09;33.70;62.90
12446;DHT22;6287;50.984;7.022;2022-07-23T12:53:42;34.00;66.40
12446;DHT22;6287;50.984;7.022;2022-07-23T12:56:27;34.20;64.70
12446;DHT22;6287;50.984;7.022;2022-07-23T13:01:30;34.90;62.20
12446;DHT22;6287;50.984;7.022;2022-07-23T13:06:39;35.30;61.70
12446;DHT22;6287;50.984;7.022;2022-07-23T13:09:06;35.50;60.50
12446;DHT22;6287;50.984;7.022;2022-07-23T13:11:33;35.70;59.80
12446;DHT22;6287;50.984;7.022;2022-07-23T13:14:04;36.00;60.80
12446;DHT22;6287;50.984;7.022;2022-07-23T13:16:30;36.20;54.70
12446;DHT22;6287;50.984;7.022;2022-07-23T13:18:59;36.00;56.80
12446;DHT22;6287;50.984;7.022;2022-07-23T13:21:26;36.00;58.50
12446;DHT22;6287;50.984;7.022;2022-07-23T13:23:55;35.70;59.20
12446;DHT22;6287;50.984;7.022;2022-07-23T13:26:20;35.60;55.90
12446;DHT22;6287;50.984;7.022;2022-07-23T13:28:50;35.50;58.80
12446;DHT22;6287;50.984;7.022;2022-07-23T13:31:18;35.20;56.10
12446;DHT22;6287;50.984;7.022;2022-07-23T13:33:47;35.10;58.30
12446;DHT22;6287;50.984;7.022;2022-07-23T13:36:15;35.30;58.00
12446;DHT22;6287;50.984;7.022;2022-07-23T13:38:41;35.10;56.40
12446;DHT22;6287;50.984;7.022;2022-07-23T13:41:10;35.10;56.90
12446;DHT22;6287;50.984;7.022;2022-07-23T13:43:38;35.10;57.60
12446;DHT22;6287;50.984;7.022;2022-07-23T13:46:04;35.10;58.70
12446;DHT22;6287;50.984;7.022;2022-07-23T13:48:32;35.00;57.50
12446;DHT22;6287;50.984;7.022;2022-07-23T13:51:00;34.80;57.60
12446;DHT22;6287;50.984;7.022;2022-07-23T13:53:30;34.80;59.00
12446;DHT22;6287;50.984;7.022;2022-07-23T13:55:58;34.60;58.60
12446;DHT22;6287;50.984;7.022;2022-07-23T14:00:55;34.60;58.20
12446;DHT22;6287;50.984;7.022;2022-07-23T14:03:22;34.70;57.20
12446;DHT22;6287;50.984;7.022;2022-07-23T14:05:52;34.80;57.30
12446;DHT22;6287;50.984;7.022;2022-07-23T14:08:20;34.90;53.90
12446;DHT22;6287;50.984;7.022;2022-07-23T14:10:45;35.00;57.20
12446;DHT22;6287;50.984;7.022;2022-07-23T14:13:11;34.90;56.80
12446;DHT22;6287;50.984;7.022;2022-07-23T14:15:39;35.00;58.00
12446;DHT22;6287;50.984;7.022;2022-07-23T14:18:09;35.00;58.30
12446;DHT22;6287;50.984;7.022;2022-07-23T14:20:37;35.20;57.50
12446;DHT22;6287;50.984;7.022;2022-07-23T14:23:05;35.40;56.90
12446;DHT22;6287;50.984;7.022;2022-07-23T14:25:31;35.70;56.20
12446;DHT22;6287;50.984;7.022;2022-07-23T14:27:59;35.70;55.10
12446;DHT22;6287;50.984;7.022;2022-07-23T14:30:26;35.90;54.10
12446;DHT22;6287;50.984;7.022;2022-07-23T14:32:51;35.90;56.60
12446;DHT22;6287;50.984;7.022;2022-07-23T14:35:17;36.00;53.70
12446;DHT22;6287;50.984;7.022;2022-07-23T14:37:44;36.10;53.50
12446;DHT22;6287;50.984;7.022;2022-07-23T14:40:10;36.30;54.00
12446;DHT22;6287;50.984;7.022;2022-07-23T14:42:35;36.40;53.80
12446;DHT22;6287;50.984;7.022;2022-07-23T14:45:05;36.40;52.40
12446;DHT22;6287;50.984;7.022;2022-07-23T14:47:34;36.40;53.10
12446;DHT22;6287;50.984;7.022;2022-07-23T14:49:59;36.40;54.60
12446;DHT22;6287;50.984;7.022;2022-07-23T14:52:27;36.10;52.30
12446;DHT22;6287;50.984;7.022;2022-07-23T14:54:53;35.90;50.50
12446;DHT22;6287;50.984;7.022;2022-07-23T14:57:21;35.90;52.80
12446;DHT22;6287;50.984;7.022;2022-07-23T14:59:47;35.80;52.00
12446;DHT22;6287;50.984;7.022;2022-07-23T15:02:12;35.70;54.80
12446;DHT22;6287;50.984;7.022;2022-07-23T15:04:40;35.70;51.80
12446;DHT22;6287;50.984;7.022;2022-07-23T15:07:06;35.70;50.50
12446;DHT22;6287;50.984;7.022;2022-07-23T15:09:32;36.00;49.60
12446;DHT22;6287;50.984;7.022;2022-07-23T15:12:00;36.00;50.40
12446;DHT22;6287;50.984;7.022;2022-07-23T15:14:28;36.20;50.40
12446;DHT22;6287;50.984;7.022;2022-07-23T15:16:56;36.30;52.40
12446;DHT22;6287;50.984;7.022;2022-07-23T15:19:24;36.30;52.30
12446;DHT22;6287;50.984;7.022;2022-07-23T15:26:46;36.40;48.40
12446;DHT22;6287;50.984;7.022;2022-07-23T15:29:14;36.30;51.70
12446;DHT22;6287;50.984;7.022;2022-07-23T15:34:06;36.00;50.50
12446;DHT22;6287;50.984;7.022;2022-07-23T15:36:32;35.90;50.80
12446;DHT22;6287;50.984;7.022;2022-07-23T15:39:00;33.80;49.90
12446;DHT22;6287;50.984;7.022;2022-07-23T15:41:25;35.80;51.00
12446;DHT22;6287;50.984;7.022;2022-07-23T15:43:56;35.40;48.80
12446;DHT22;6287;50.984;7.022;2022-07-23T15:46:22;35.30;48.40
12446;DHT22;6287;50.984;7.022;2022-07-23T15:48:51;35.10;49.30
12446;DHT22;6287;50.984;7.022;2022-07-23T15:51:17;34.80;51.40
12446;DHT22;6287;50.984;7.022;2022-07-23T15:53:43;34.70;51.30
12446;DHT22;6287;50.984;7.022;2022-07-23T15:56:10;34.60;52.20
12446;DHT22;6287;50.984;7.022;2022-07-23T15:58:39;34.40;51.40
12446;DHT22;6287;50.984;7.022;2022-07-23T16:01:07;34.10;52.60
12446;DHT22;6287;50.984;7.022;2022-07-23T16:03:34;33.90;53.80
12446;DHT22;6287;50.984;7.022;2022-07-23T16:06:04;33.90;53.80
12446;DHT22;6287;50.984;7.022;2022-07-23T16:08:30;34.00;53.50
12446;DHT22;6287;50.984;7.022;2022-07-23T16:10:59;34.20;52.50
12446;DHT22;6287;50.984;7.022;2022-07-23T16:13:25;34.30;54.20
12446;DHT22;6287;50.984;7.022;2022-07-23T16:15:52;34.60;52.90
12446;DHT22;6287;50.984;7.022;2022-07-23T16:18:21;34.70;52.20
12446;DHT22;6287;50.984;7.022;2022-07-23T16:20:48;34.80;52.50
12446;DHT22;6287;50.984;7.022;2022-07-23T16:23:17;34.90;51.40
12446;DHT22;6287;50.984;7.022;2022-07-23T16:25:43;34.70;51.60
12446;DHT22;6287;50.984;7.022;2022-07-23T16:28:11;34.50;52.20
12446;DHT22;6287;50.984;7.022;2022-07-23T16:33:07;33.90;52.10
12446;DHT22;6287;50.984;7.022;2022-07-23T16:35:37;33.80;51.20
12446;DHT22;6287;50.984;7.022;2022-07-23T16:38:05;33.60;52.70
12446;DHT22;6287;50.984;7.022;2022-07-23T16:40:36;33.10;53.50
12446;DHT22;6287;50.984;7.022;2022-07-23T16:43:07;33.00;54.60
12446;DHT22;6287;50.984;7.022;2022-07-23T16:45:32;32.30;55.00
12446;DHT22;6287;50.984;7.022;2022-07-23T16:47:58;32.00;55.40
12446;DHT22;6287;50.984;7.022;2022-07-23T16:50:26;31.80;55.50
12446;DHT22;6287;50.984;7.022;2022-07-23T16:52:52;31.60;55.90
12446;DHT22;6287;50.984;7.022;2022-07-23T16:55:20;31.60;55.60
12446;DHT22;6287;50.984;7.022;2022-07-23T16:57:45;31.50;56.70
12446;DHT22;6287;50.984;7.022;2022-07-23T17:00:11;31.50;57.00
12446;DHT22;6287;50.984;7.022;2022-07-23T17:02:38;31.30;56.40
12446;DHT22;6287;50.984;7.022;2022-07-23T17:05:05;31.20;57.50
12446;DHT22;6287;50.984;7.022;2022-07-23T17:07:35;30.80;58.90